Time;durP1;ratioP1;P1;durP2;ratioP2;P2;SDS_P1;SDS_P2;PMS_P1;PMS_P2;Temp;Humidity;BMP_temperature;BMP_pressure;BME280_temperature;BME280_humidity;BME280_pressure;Samples;Min_cycle;Max_cycle;Signal;HPM_P1;HPM_P2
2021/07/05 00:02:26;;;;;;;12.85;7.40;;;;;;;20.55;85.49;98710.73;1754698;80;20996;-74
2021/07/05 00:04:52;;;;;;;15.13;9.18;;;;;;;20.57;85.77;98715.11;1756366;80;21543;-73
2021/07/05 00:07:20;;;;;;;22.65;10.50;;;;;;;20.58;85.75;98717.50;1763360;80;21020;-74
2021/07/05 00:09:46;;;;;;;20.00;13.18;;;;;;;20.60;85.69;98720.69;1756405;80;20993;-74
2021/07/05 00:12:15;;;;;;;15.60;10.40;;;;;;;20.60;85.80;98717.89;1768019;80;21024;-74
2021/07/05 00:14:41;;;;;;;13.40;8.98;;;;;;;20.59;86.09;98719.08;1767790;80;21059;-74
2021/07/05 00:17:09;;;;;;;13.65;7.58;;;;;;;20.62;86.15;98718.28;1753505;80;21531;-74
2021/07/05 00:19:37;;;;;;;15.43;9.03;;;;;;;20.64;85.97;98722.84;1761584;80;20972;-74
2021/07/05 00:22:05;;;;;;;11.18;7.33;;;;;;;20.66;85.98;98716.84;1752525;80;21028;-74
2021/07/05 00:24:32;;;;;;;11.18;7.03;;;;;;;20.68;85.86;98718.64;1760810;80;21009;-74
2021/07/05 00:27:01;;;;;;;9.55;6.87;;;;;;;20.70;85.71;98712.63;1768691;80;21491;-74
2021/07/05 00:29:27;;;;;;;12.45;6.87;;;;;;;20.71;85.61;98714.23;1763992;80;21085;-75
2021/07/05 00:31:55;;;;;;;9.05;6.35;;;;;;;20.73;85.61;98706.20;1755770;80;21032;-76
2021/07/05 00:34:22;;;;;;;14.38;6.50;;;;;;;20.75;85.61;98702.41;1761924;80;21029;-75
2021/07/05 00:36:51;;;;;;;11.38;6.00;;;;;;;20.78;85.61;98702.98;1765286;80;20985;-75
2021/07/05 00:39:19;;;;;;;9.03;5.70;;;;;;;20.80;85.74;98697.17;1753025;80;21067;-74
2021/07/05 00:41:45;;;;;;;9.80;5.80;;;;;;;20.85;85.76;98705.73;1756340;80;21518;-76
2021/07/05 00:44:11;;;;;;;13.08;5.78;;;;;;;20.88;85.72;98704.91;1758203;80;21041;-75
2021/07/05 00:46:38;;;;;;;11.60;5.97;;;;;;;20.91;85.68;98703.31;1764446;80;21543;-74
2021/07/05 00:49:05;;;;;;;9.08;5.25;;;;;;;20.94;85.59;98696.91;1759170;80;21056;-74
2021/07/05 00:51:31;;;;;;;10.53;5.55;;;;;;;20.96;85.51;98693.11;1773805;80;21497;-75
2021/07/05 00:53:57;;;;;;;7.47;5.10;;;;;;;20.99;85.38;98688.67;1769685;80;21513;-74
2021/07/05 00:56:24;;;;;;;11.28;6.05;;;;;;;21.03;85.24;98692.25;1766436;80;21052;-74
2021/07/05 00:58:51;;;;;;;10.60;5.35;;;;;;;21.06;85.11;98687.82;1760031;80;21506;-73
2021/07/05 01:01:17;;;;;;;11.08;5.60;;;;;;;21.09;84.94;98689.78;1753700;80;20985;-73
2021/07/05 01:03:44;;;;;;;9.83;4.92;;;;;;;21.11;84.72;98700.78;1756773;81;21522;-75
2021/07/05 01:06:12;;;;;;;11.12;4.95;;;;;;;21.11;84.59;98699.38;1747095;81;21039;-74
2021/07/05 01:08:38;;;;;;;12.20;5.42;;;;;;;21.12;84.43;98690.39;1753049;81;21021;-74
2021/07/05 01:11:05;;;;;;;8.00;5.05;;;;;;;21.11;84.34;98689.58;1733725;81;21647;-74
2021/07/05 01:13:31;;;;;;;9.73;4.83;;;;;;;21.12;84.27;98684.78;1749568;81;21034;-74
2021/07/05 01:15:58;;;;;;;8.93;4.62;;;;;;;21.12;84.14;98685.56;1750108;81;21049;-75
2021/07/05 01:18:24;;;;;;;14.75;4.62;;;;;;;21.12;84.04;98691.16;1752494;81;21541;-75
2021/07/05 01:20:50;;;;;;;11.70;4.60;;;;;;;21.13;83.96;98687.77;1755802;81;21045;-74
2021/07/05 01:23:17;;;;;;;7.83;5.30;;;;;;;21.13;83.75;98687.17;1746658;81;21005;-73
2021/07/05 01:25:44;;;;;;;10.23;5.20;;;;;;;21.14;83.63;98691.55;1746128;81;20989;-75
2021/07/05 01:28:11;;;;;;;10.05;4.67;;;;;;;21.15;83.51;98685.36;1747916;81;21049;-73
2021/07/05 01:30:40;;;;;;;6.05;4.78;;;;;;;21.15;83.40;98695.16;1748103;81;21844;-74
2021/07/05 01:33:08;;;;;;;7.37;5.03;;;;;;;21.15;83.37;98697.95;1751654;81;20962;-75
2021/07/05 01:35:34;;;;;;;12.78;5.10;;;;;;;21.14;83.28;98695.75;1750332;81;21479;-74
2021/07/05 01:38:01;;;;;;;6.95;4.90;;;;;;;21.15;83.24;98695.16;1748203;81;21001;-75
2021/07/05 01:40:27;;;;;;;6.55;4.00;;;;;;;21.13;83.21;98696.97;1747626;81;21049;-73
2021/07/05 01:42:57;;;;;;;11.95;4.95;;;;;;;21.14;83.12;98696.34;1754297;81;21859;-74
2021/07/05 01:45:29;;;;;;;7.70;4.62;;;;;;;21.14;83.13;98700.55;1755605;81;21022;-74
2021/07/05 01:47:56;;;;;;;6.72;4.75;;;;;;;21.15;83.02;98695.94;1757019;81;21057;-75
2021/07/05 01:50:23;;;;;;;12.50;5.87;;;;;;;21.15;82.89;98690.33;1751896;81;21041;-76
2021/07/05 01:52:50;;;;;;;14.28;5.33;;;;;;;21.15;82.86;98700.76;1751855;81;21543;-73
2021/07/05 01:55:17;;;;;;;9.13;5.33;;;;;;;21.14;82.81;98699.95;1749186;81;21998;-74
2021/07/05 01:57:43;;;;;;;9.83;5.15;;;;;;;21.14;82.77;98700.55;1749417;81;21503;-75
2021/07/05 02:00:14;;;;;;;10.63;5.40;;;;;;;21.14;82.62;98711.75;1748073;81;21080;-74
2021/07/05 02:02:40;;;;;;;6.78;4.80;;;;;;;21.12;82.55;98714.97;1760149;80;21002;-74
2021/07/05 02:05:11;;;;;;;8.35;5.00;;;;;;;21.11;82.52;98717.58;1762973;80;21032;-73
2021/07/05 02:07:38;;;;;;;9.05;5.00;;;;;;;21.10;82.47;98718.77;1763088;80;21982;-74
2021/07/05 02:10:07;;;;;;;7.42;4.60;;;;;;;21.09;82.49;98722.80;1762827;80;20989;-74
2021/07/05 02:12:33;;;;;;;9.68;4.97;;;;;;;21.09;82.46;98724.19;1760300;80;21577;-75
2021/07/05 02:15:00;;;;;;;8.83;4.80;;;;;;;21.09;82.26;98728.39;1761390;80;21014;-75
2021/07/05 02:17:27;;;;;;;6.67;4.92;;;;;;;21.08;82.21;98723.20;1773622;80;21045;-72
2021/07/05 02:19:53;;;;;;;8.13;5.22;;;;;;;21.06;82.25;98723.62;1755768;80;21082;-72
2021/07/05 02:22:20;;;;;;;12.37;5.45;;;;;;;21.07;82.35;98725.20;1761718;80;21032;-74
2021/07/05 02:24:47;;;;;;;7.87;5.45;;;;;;;21.07;82.48;98723.80;1757071;80;20993;-74
2021/07/05 02:27:13;;;;;;;8.15;4.92;;;;;;;21.08;82.65;98727.41;1765603;80;21568;-74
2021/07/05 02:29:40;;;;;;;10.38;5.58;;;;;;;21.08;82.66;98726.81;1763699;80;21562;-73
2021/07/05 02:32:07;;;;;;;11.88;5.83;;;;;;;21.10;82.65;98730.59;1758267;80;21525;-75
2021/07/05 02:34:33;;;;;;;8.90;5.65;;;;;;;21.12;82.58;98729.59;1763287;80;21017;-75
2021/07/05 02:36:59;;;;;;;9.55;6.37;;;;;;;21.12;82.58;98723.36;1758313;80;21056;-75
2021/07/05 02:39:26;;;;;;;7.97;5.05;;;;;;;21.12;82.62;98725.39;1767938;80;21079;-75
2021/07/05 02:41:52;;;;;;;9.83;4.62;;;;;;;21.13;82.60;98724.17;1761355;80;21361;-76
2021/07/05 02:44:18;;;;;;;9.63;5.42;;;;;;;21.13;82.52;98722.17;1757789;80;21558;-74
2021/07/05 02:46:46;;;;;;;8.05;5.50;;;;;;;21.14;82.55;98726.55;1756107;80;21048;-74
2021/07/05 02:49:12;;;;;;;15.08;5.87;;;;;;;21.15;82.58;98730.94;1756462;80;21597;-74
2021/07/05 02:51:38;;;;;;;9.43;6.30;;;;;;;21.18;82.64;98728.53;1760894;80;21137;-73
2021/07/05 02:54:06;;;;;;;10.43;5.83;;;;;;;21.21;82.56;98729.09;1752999;80;21080;-75
2021/07/05 02:56:33;;;;;;;12.95;5.78;;;;;;;21.21;82.63;98728.50;1755034;80;21555;-73
2021/07/05 02:59:00;;;;;;;9.48;5.22;;;;;;;21.24;82.61;98730.47;1753962;80;21093;-74
2021/07/05 03:01:26;;;;;;;10.95;5.55;;;;;;;21.25;82.53;98731.28;1767461;80;21041;-74
2021/07/05 03:03:52;;;;;;;9.90;4.90;;;;;;;21.26;82.57;98732.86;1760456;80;21035;-73
2021/07/05 03:06:21;;;;;;;10.18;5.12;;;;;;;21.27;82.58;98734.47;1760820;80;21052;-74
2021/07/05 03:08:47;;;;;;;11.83;5.15;;;;;;;21.28;82.59;98736.86;1766434;80;21800;-74
2021/07/05 03:11:14;;;;;;;8.50;5.00;;;;;;;21.29;82.57;98736.23;1751815;80;20993;-74
2021/07/05 03:13:42;;;;;;;9.18;5.53;;;;;;;21.33;82.68;98740.41;1750305;80;20981;-74
2021/07/05 03:16:09;;;;;;;7.15;5.37;;;;;;;21.33;82.63;98738.41;1766062;80;21017;-73
2021/07/05 03:18:36;;;;;;;9.38;5.67;;;;;;;21.36;82.59;98738.98;1749490;80;21104;-74
2021/07/05 03:21:02;;;;;;;10.65;5.92;;;;;;;21.40;82.52;98740.36;1753823;80;21211;-74
2021/07/05 03:23:29;;;;;;;7.42;5.47;;;;;;;21.44;82.40;98738.92;1763532;80;20993;-74
2021/07/05 03:25:55;;;;;;;12.95;5.60;;;;;;;21.48;82.32;98745.28;1748722;80;21518;-73
2021/07/05 03:28:22;;;;;;;9.68;5.95;;;;;;;21.50;82.26;98739.47;1765110;80;21013;-74
2021/07/05 03:30:52;;;;;;;9.95;6.78;;;;;;;21.55;82.12;98735.41;1754031;80;21000;-73
2021/07/05 03:33:18;;;;;;;9.73;5.92;;;;;;;21.57;82.01;98733.59;1761161;80;21082;-74
2021/07/05 03:35:46;;;;;;;9.95;6.25;;;;;;;21.60;81.99;98733.56;1765650;80;20985;-75
2021/07/05 03:38:15;;;;;;;12.40;6.80;;;;;;;21.64;81.87;98737.14;1745124;80;22134;-75
2021/07/05 03:40:41;;;;;;;7.55;5.92;;;;;;;21.68;81.71;98725.91;1755782;80;21009;-75
2021/07/05 03:43:08;;;;;;;9.83;6.42;;;;;;;21.73;81.51;98728.22;1759307;80;21577;-74
2021/07/05 03:45:37;;;;;;;9.53;5.58;;;;;;;21.74;81.41;98721.42;1755940;80;21146;-73
2021/07/05 03:48:06;;;;;;;9.53;7.03;;;;;;;21.78;81.21;98725.59;1756548;80;21071;-73
2021/07/05 03:50:34;;;;;;;10.00;6.87;;;;;;;21.81;81.08;98720.58;1748050;80;21595;-74
2021/07/05 03:53:01;;;;;;;16.75;7.05;;;;;;;21.81;80.92;98723.98;1756987;80;21040;-73
2021/07/05 03:55:29;;;;;;;7.25;6.47;;;;;;;21.82;81.05;98724.19;1747989;80;21081;-74
2021/07/05 03:57:56;;;;;;;12.75;7.10;;;;;;;21.86;80.78;98722.13;1746759;80;21142;-74
2021/07/05 04:00:27;;;;;;;7.42;6.05;;;;;;;21.83;80.94;98721.56;1760978;80;21020;-74
2021/07/05 04:02:53;;;;;;;11.65;6.85;;;;;;;21.87;80.96;98728.72;1754777;80;21084;-74
2021/07/05 04:05:33;;;;;;;10.55;6.30;;;;;;;21.95;80.96;98723.04;1762763;80;21636;-73
2021/07/05 04:08:01;;;;;;;11.88;7.00;;;;;;;22.03;80.78;98725.14;1687523;83;21087;-74
2021/07/05 04:10:28;;;;;;;10.78;7.03;;;;;;;22.10;80.45;98725.07;1687940;82;21149;-75
2021/07/05 04:12:54;;;;;;;9.08;6.95;;;;;;;22.15;80.22;98721.80;1687275;83;21529;-73
2021/07/05 04:15:22;;;;;;;11.35;6.72;;;;;;;22.21;80.01;98722.15;1689332;81;21036;-73
2021/07/05 04:17:49;;;;;;;10.08;6.50;;;;;;;22.25;79.81;98718.67;1691553;83;21145;-74
2021/07/05 04:20:19;;;;;;;11.80;6.55;;;;;;;22.33;79.50;98718.77;1688248;83;21617;-75
2021/07/05 04:22:46;;;;;;;12.95;7.62;;;;;;;22.38;79.43;98716.91;1687476;83;21133;-75
2021/07/05 04:25:14;;;;;;;8.60;6.72;;;;;;;22.41;79.06;98714.48;1692296;83;20997;-74
2021/07/05 04:27:42;;;;;;;9.10;6.97;;;;;;;22.45;79.01;98720.84;1691613;83;21572;-76
2021/07/05 04:30:10;;;;;;;9.55;6.67;;;;;;;22.52;78.91;98726.34;1686197;83;21616;-74
2021/07/05 04:32:37;;;;;;;10.55;6.95;;;;;;;22.58;78.78;98729.48;1690569;83;21039;-75
2021/07/05 04:35:09;;;;;;;13.80;7.40;;;;;;;22.64;78.52;98725.02;1645113;86;21261;-73
2021/07/05 04:37:37;;;;;;;10.45;7.28;;;;;;;22.69;78.20;98734.36;1684871;83;21101;-75
2021/07/05 04:40:12;;;;;;;11.53;7.12;;;;;;;22.75;77.93;98730.48;1644647;86;21074;-75
2021/07/05 04:42:40;;;;;;;9.90;7.17;;;;;;;22.80;77.61;98725.80;1684022;83;21028;-74
2021/07/05 04:45:08;;;;;;;12.25;7.97;;;;;;;22.83;77.35;98722.73;1646427;85;21098;-75
2021/07/05 04:47:36;;;;;;;12.50;7.75;;;;;;;22.81;77.13;98732.99;1681255;83;21153;-74
2021/07/05 04:50:03;;;;;;;11.35;7.37;;;;;;;22.81;77.06;98735.02;1689249;83;21061;-74
2021/07/05 04:52:30;;;;;;;9.45;7.62;;;;;;;22.82;77.15;98737.41;1687289;83;21589;-75
2021/07/05 04:54:56;;;;;;;11.78;7.05;;;;;;;22.86;77.08;98731.11;1688235;83;21309;-74
2021/07/05 04:57:22;;;;;;;13.18;8.28;;;;;;;22.88;77.16;98729.91;1689388;83;21013;-74
2021/07/05 04:59:49;;;;;;;11.40;7.58;;;;;;;22.89;76.90;98736.50;1688460;83;21761;-75
2021/07/05 05:02:17;;;;;;;15.78;7.08;;;;;;;22.91;77.00;98733.27;1691764;81;21518;-75
2021/07/05 05:04:45;;;;;;;9.30;7.37;;;;;;;22.95;76.85;98727.78;1690696;83;21021;-75
2021/07/05 05:07:11;;;;;;;16.45;7.58;;;;;;;22.95;76.71;98731.99;1688938;83;21044;-73
2021/07/05 05:09:38;;;;;;;8.73;6.83;;;;;;;22.98;76.69;98731.14;1675919;83;21505;-75
2021/07/05 05:12:05;;;;;;;15.20;7.97;;;;;;;23.00;76.81;98722.91;1671806;84;21103;-76
2021/07/05 05:14:32;;;;;;;10.70;7.53;;;;;;;23.03;76.71;98724.23;1680326;83;21035;-74
2021/07/05 05:16:58;;;;;;;17.52;8.08;;;;;;;23.08;76.63;98718.14;1644520;86;21032;-74
2021/07/05 05:19:25;;;;;;;13.93;7.10;;;;;;;23.15;76.40;98718.64;1686371;83;21502;-75
2021/07/05 05:21:52;;;;;;;11.15;7.58;;;;;;;23.23;76.25;98720.73;1692217;82;21586;-74
2021/07/05 05:24:19;;;;;;;12.13;8.43;;;;;;;23.31;76.40;98728.42;1691061;83;21111;-74
2021/07/05 05:26:45;;;;;;;10.80;7.58;;;;;;;23.41;76.27;98726.67;1682666;83;21524;-75
2021/07/05 05:29:12;;;;;;;14.45;7.47;;;;;;;23.49;75.80;98726.73;1687242;83;21554;-74
2021/07/05 05:31:38;;;;;;;8.43;6.95;;;;;;;23.61;75.43;98726.72;1691043;83;21048;-73
2021/07/05 05:34:05;;;;;;;14.70;8.20;;;;;;;23.69;75.25;98724.59;1690244;83;21085;-74
2021/07/05 05:36:31;;;;;;;12.03;8.55;;;;;;;23.77;74.78;98728.86;1685219;83;21691;-75
2021/07/05 05:39:00;;;;;;;13.35;8.55;;;;;;;23.75;74.82;98730.52;1687095;83;21021;-74
2021/07/05 05:41:28;;;;;;;12.15;8.68;;;;;;;23.79;74.59;98725.61;1690588;83;21076;-74
2021/07/05 05:43:59;;;;;;;14.93;8.10;;;;;;;23.86;74.52;98730.30;1683675;83;21038;-75
2021/07/05 05:46:24;;;;;;;15.23;8.18;;;;;;;23.89;74.03;98730.23;1700862;81;21791;-73
2021/07/05 05:48:51;;;;;;;10.85;7.92;;;;;;;23.93;73.87;98738.61;1686711;83;21152;-76
2021/07/05 05:51:18;;;;;;;15.08;7.87;;;;;;;23.97;73.94;98729.48;1680100;83;21099;-75
2021/07/05 05:53:44;;;;;;;14.33;8.68;;;;;;;24.03;73.75;98726.36;1686803;83;21474;-74
2021/07/05 05:56:11;;;;;;;19.80;8.30;;;;;;;24.10;73.67;98729.64;1688291;83;21043;-74
2021/07/05 05:58:40;;;;;;;8.90;8.00;;;;;;;24.15;73.19;98729.75;1687178;83;21463;-75
2021/07/05 16:03:26;;;;;;;8.08;3.50;;;;;;;26.49;58.31;98721.44;1779443;77;27829;-72
2021/07/05 16:05:53;;;;;;;8.83;3.85;;;;;;;26.47;57.93;98712.66;1783723;79;20983;-75
2021/07/05 16:08:43;;;;;;;9.33;3.52;;;;;;;26.48;57.84;98709.19;1757419;79;21121;-74
2021/07/05 16:11:10;;;;;;;6.90;3.60;;;;;;;26.45;58.22;98709.48;1786020;79;21471;-73
2021/07/05 16:13:38;;;;;;;8.13;3.67;;;;;;;26.44;57.90;98721.22;1804108;78;21090;-73
2021/07/05 16:16:05;;;;;;;15.75;4.58;;;;;;;26.43;58.22;98740.80;1803115;79;20975;-73
2021/07/05 16:18:32;;;;;;;11.97;4.10;;;;;;;26.41;60.03;98739.06;1806145;79;20909;-74
2021/07/05 16:21:00;;;;;;;7.28;3.40;;;;;;;26.29;61.03;98751.87;1805211;79;21047;-75
2021/07/05 16:23:27;;;;;;;5.05;3.50;;;;;;;26.12;61.87;98756.95;1801513;79;20873;-74
2021/07/05 16:25:55;;;;;;;4.47;3.70;;;;;;;25.89;62.05;98763.64;1776104;79;21496;-75
2021/07/05 16:28:21;;;;;;;5.05;3.40;;;;;;;25.72;62.58;98762.88;1803747;79;21047;-74
2021/07/05 16:30:52;;;;;;;3.85;3.52;;;;;;;25.66;63.19;98764.02;1799853;79;21052;-73
2021/07/05 16:33:20;;;;;;;13.72;4.25;;;;;;;25.60;63.07;98761.54;1774157;79;21115;-74
2021/07/05 16:35:54;;;;;;;8.28;4.15;;;;;;;25.51;63.06;98762.16;1724014;81;21046;-73
2021/07/05 16:38:22;;;;;;;9.15;4.42;;;;;;;25.40;63.39;98769.50;1784689;79;21040;-74
2021/07/05 16:40:51;;;;;;;5.50;3.72;;;;;;;25.30;63.33;98769.14;1795214;79;21085;-75
2021/07/05 16:43:23;;;;;;;9.18;3.70;;;;;;;25.21;63.70;98769.75;1803632;79;26920;-73
2021/07/05 16:45:50;;;;;;;5.55;3.35;;;;;;;25.11;63.90;98768.14;1771168;79;21595;-74
2021/07/05 16:48:16;;;;;;;7.85;3.58;;;;;;;25.08;64.38;98768.25;1802960;79;21067;-74
2021/07/05 16:51:01;;;;;;;6.78;4.03;;;;;;;25.09;64.21;98765.60;1802749;79;21103;-74
2021/07/05 16:53:17;;;;;;;6.00;3.80;;;;;;;25.09;64.26;98767.81;1801959;79;21020;-74
2021/07/05 16:55:47;;;;;;;6.75;3.60;;;;;;;25.10;63.84;98769.99;1802990;79;21014;-75
2021/07/05 16:58:13;;;;;;;7.28;3.60;;;;;;;25.08;63.32;98770.43;1773964;78;21512;-76
2021/07/05 17:00:40;;;;;;;4.50;3.40;;;;;;;25.07;63.02;98775.09;1773826;79;20972;-75
2021/07/05 17:03:10;;;;;;;4.53;3.12;;;;;;;25.05;63.08;98779.77;1805107;79;21544;-76
2021/07/05 17:05:37;;;;;;;3.67;3.00;;;;;;;25.06;62.86;98776.34;1748886;79;21572;-76
2021/07/05 17:08:04;;;;;;;6.25;3.37;;;;;;;25.06;62.24;98781.98;1807425;79;20989;-76
2021/07/05 17:10:36;;;;;;;4.03;3.33;;;;;;;25.07;61.84;98792.80;1798158;78;21112;-75
2021/07/05 17:13:14;;;;;;;3.95;3.02;;;;;;;25.10;61.70;98789.72;1638160;85;21100;-73
2021/07/05 17:15:41;;;;;;;5.08;3.17;;;;;;;25.10;61.67;98790.52;1697361;84;20995;-73
2021/07/05 17:18:07;;;;;;;4.87;3.80;;;;;;;25.12;61.12;98792.28;1661346;84;21059;-74
2021/07/05 17:20:34;;;;;;;5.22;3.45;;;;;;;25.16;61.12;98793.62;1691405;84;21032;-71
2021/07/05 17:23:02;;;;;;;10.78;2.83;;;;;;;25.17;60.94;98790.96;1688554;84;21589;-73
2021/07/05 17:25:29;;;;;;;6.87;3.10;;;;;;;25.20;60.59;98797.13;1693132;84;21098;-72
2021/07/05 17:27:55;;;;;;;4.95;3.80;;;;;;;25.22;60.27;98796.08;1690264;84;21515;-73
2021/07/05 17:30:25;;;;;;;4.97;3.25;;;;;;;25.18;60.00;98797.41;1691242;84;21113;-73
2021/07/05 17:32:53;;;;;;;16.57;3.70;;;;;;;25.12;60.05;98802.75;1693029;84;21621;-71
2021/07/05 17:35:25;;;;;;;4.28;3.05;;;;;;;25.07;60.35;98809.71;1688445;84;21078;-73
2021/07/05 17:37:52;;;;;;;7.10;3.10;;;;;;;25.04;60.53;98805.73;1690816;84;21082;-74
2021/07/05 17:40:23;;;;;;;4.53;3.15;;;;;;;25.05;60.68;98807.94;1635314;84;21550;-74
2021/07/05 17:42:50;;;;;;;5.87;3.22;;;;;;;25.04;60.97;98812.77;1671066;85;21105;-74
2021/07/05 17:45:18;;;;;;;9.48;3.20;;;;;;;25.02;61.10;98815.25;1677198;83;21075;-74
2021/07/05 17:47:44;;;;;;;4.40;3.05;;;;;;;24.98;61.12;98810.30;1641715;87;22149;-74
2021/07/05 17:50:17;;;;;;;4.00;3.30;;;;;;;24.96;61.29;98815.57;1683506;84;21040;-74
2021/07/05 17:52:58;;;;;;;7.75;3.47;;;;;;;24.95;61.37;98813.19;1633144;87;21066;-76
2021/07/05 17:55:36;;;;;;;6.47;3.95;;;;;;;24.93;61.20;98815.05;1642896;86;21063;-75
2021/07/05 17:58:25;;;;;;;6.67;3.87;;;;;;;24.89;61.29;98815.72;1670821;85;21074;-75
2021/07/05 18:00:54;;;;;;;6.15;3.08;;;;;;;24.85;61.43;98820.63;1701927;83;22049;-73
2021/07/05 18:03:35;;;;;;;3.40;3.10;;;;;;;24.79;61.78;98825.36;1702155;83;21137;-74
2021/07/05 18:06:04;;;;;;;5.03;3.75;;;;;;;24.77;61.95;98832.03;1701167;82;21078;-73
2021/07/05 18:08:41;;;;;;;6.45;3.60;;;;;;;24.76;61.97;98826.23;1730084;81;21058;-75
2021/07/05 18:11:06;;;;;;;6.42;3.58;;;;;;;24.73;62.15;98831.34;1737995;82;21565;-75
2021/07/05 18:13:37;;;;;;;6.50;3.50;;;;;;;24.72;62.13;98838.17;1742543;81;21066;-76
2021/07/05 18:17:11;;;;;;;10.55;4.20;;;;;;;24.71;62.40;98840.83;1734018;82;21061;-73
2021/07/05 18:20:03;;;;;;;7.85;3.37;;;;;;;24.71;62.54;98839.42;1709547;82;21054;-74
2021/07/05 18:22:30;;;;;;;8.73;3.95;;;;;;;24.70;62.55;98836.44;1730617;82;21381;-73
2021/07/05 18:25:00;;;;;;;5.95;3.33;;;;;;;24.71;62.85;98845.66;1741133;82;21084;-75
2021/07/05 18:27:41;;;;;;;6.08;3.72;;;;;;;24.70;62.98;98849.70;1732893;81;21613;-74
2021/07/05 18:30:20;;;;;;;6.62;3.70;;;;;;;24.64;63.11;98854.44;1718301;81;21120;-74
2021/07/05 18:32:53;;;;;;;6.53;3.50;;;;;;;24.64;63.54;98853.63;1721481;81;21319;-75
2021/07/05 18:35:20;;;;;;;4.80;3.70;;;;;;;24.63;63.67;98854.88;1745724;81;21081;-74
2021/07/05 18:37:46;;;;;;;6.03;3.67;;;;;;;24.62;63.83;98857.48;1739747;81;21003;-75
2021/07/05 18:40:20;;;;;;;4.45;3.67;;;;;;;24.61;63.74;98858.13;1738111;81;21481;-75
2021/07/05 18:42:50;;;;;;;7.30;3.33;;;;;;;24.62;63.95;98856.89;1739831;82;21149;-74
2021/07/05 18:45:23;;;;;;;8.25;4.05;;;;;;;24.63;64.00;98867.55;1753901;81;21042;-75
2021/07/05 18:47:56;;;;;;;6.25;3.70;;;;;;;24.63;64.06;98871.77;1741647;81;21636;-73
2021/07/05 18:50:28;;;;;;;3.70;3.20;;;;;;;24.62;64.04;98871.56;1757536;81;21045;-74
2021/07/05 18:56:36;;;;;;;5.10;3.72;;;;;;;24.60;63.92;98882.49;1697284;84;20989;-75
2021/07/05 18:59:27;;;;;;;11.70;4.03;;;;;;;24.57;63.86;98880.55;1728379;83;21055;-74
2021/07/05 19:02:05;;;;;;;5.40;3.30;;;;;;;24.54;63.92;98877.36;1724654;81;21021;-74
2021/07/05 19:04:48;;;;;;;6.08;3.30;;;;;;;24.53;64.01;98871.53;1747109;80;21113;-76
2021/07/05 19:07:14;;;;;;;7.03;3.50;;;;;;;24.49;64.11;98875.05;1779124;80;22017;-75
2021/07/05 19:09:44;;;;;;;5.80;3.95;;;;;;;24.49;64.18;98876.45;1776533;80;21585;-75
2021/07/05 19:12:12;;;;;;;5.35;3.70;;;;;;;24.46;64.20;98871.69;1744333;80;21121;-72
2021/07/05 19:14:47;;;;;;;7.90;4.55;;;;;;;24.46;64.22;98870.28;1775021;80;21027;-73
2021/07/05 19:17:18;;;;;;;5.75;3.83;;;;;;;24.47;64.32;98874.67;1778535;80;20936;-75
2021/07/05 19:19:48;;;;;;;9.13;3.55;;;;;;;24.46;64.52;98867.47;1741764;80;21168;-74
2021/07/05 19:22:17;;;;;;;5.12;4.00;;;;;;;24.46;64.61;98868.08;1767567;80;21026;-75
2021/07/05 19:24:45;;;;;;;8.78;4.08;;;;;;;24.44;64.67;98869.91;1776468;80;21039;-74
2021/07/05 19:27:14;;;;;;;11.90;4.12;;;;;;;24.42;64.79;98864.72;1764426;80;21499;-74
2021/07/05 19:29:42;;;;;;;5.47;3.85;;;;;;;24.41;64.89;98865.16;1755321;80;21106;-75
2021/07/05 19:32:08;;;;;;;4.67;3.65;;;;;;;24.39;65.08;98869.01;1726769;83;21070;-74
2021/07/05 19:34:35;;;;;;;6.42;3.50;;;;;;;24.37;65.21;98858.78;1727385;83;21543;-74
2021/07/05 19:37:02;;;;;;;5.72;3.87;;;;;;;24.35;65.32;98861.23;1727378;82;21019;-74
2021/07/05 19:39:32;;;;;;;6.65;3.80;;;;;;;24.34;65.42;98863.27;1786194;80;21082;-74
2021/07/05 19:42:00;;;;;;;4.30;3.75;;;;;;;24.34;65.44;98858.25;1788503;80;20996;-75
2021/07/05 19:44:27;;;;;;;6.85;3.92;;;;;;;24.28;65.43;98858.74;1758153;80;21280;-74
2021/07/05 19:46:54;;;;;;;6.62;3.87;;;;;;;24.24;65.69;98860.81;1726777;83;21027;-73
2021/07/05 19:49:20;;;;;;;6.30;3.85;;;;;;;24.24;65.80;98862.86;1727562;82;21041;-73
2021/07/05 19:51:46;;;;;;;10.50;4.10;;;;;;;24.24;65.89;98861.45;1757996;81;21049;-74
2021/07/05 19:54:13;;;;;;;7.33;4.30;;;;;;;24.23;65.89;98857.03;1760079;81;21122;-72
2021/07/05 19:56:40;;;;;;;5.67;4.47;;;;;;;24.21;65.96;98858.87;1741939;81;21165;-74
2021/07/05 19:59:07;;;;;;;14.00;5.67;;;;;;;24.22;65.97;98856.86;1736495;81;20995;-75
2021/07/05 20:01:33;;;;;;;8.05;4.90;;;;;;;24.23;65.89;98855.63;1736217;81;21037;-74
2021/07/05 20:04:00;;;;;;;6.20;4.47;;;;;;;24.22;65.92;98858.27;1739550;81;21100;-73
2021/07/05 20:06:27;;;;;;;12.40;6.12;;;;;;;24.21;65.90;98853.88;1743178;80;21540;-74
2021/07/05 20:08:53;;;;;;;14.15;5.85;;;;;;;24.18;65.86;98862.55;1744182;81;21151;-74
2021/07/05 20:11:20;;;;;;;7.45;4.90;;;;;;;24.16;65.89;98863.55;1742437;81;21018;-76
2021/07/05 20:13:54;;;;;;;6.12;4.70;;;;;;;24.14;65.96;98860.40;1748017;81;21123;-76
2021/07/05 20:16:20;;;;;;;5.42;4.65;;;;;;;24.12;66.06;98856.58;1740745;81;21552;-73
2021/07/05 20:18:48;;;;;;;6.75;4.28;;;;;;;24.10;66.18;98856.84;1743198;81;21020;-74
2021/07/05 20:21:14;;;;;;;5.30;4.47;;;;;;;24.09;66.20;98858.08;1749521;81;21160;-75
2021/07/05 20:23:43;;;;;;;8.83;4.33;;;;;;;24.07;66.22;98855.06;1743893;80;21275;-75
2021/07/05 20:26:12;;;;;;;9.33;5.03;;;;;;;24.05;66.31;98854.69;1734522;82;21053;-74
2021/07/05 20:28:44;;;;;;;7.58;4.65;;;;;;;24.04;66.25;98864.37;1708960;82;21081;-75
2021/07/05 20:31:12;;;;;;;7.58;4.20;;;;;;;24.03;66.36;98864.19;1733628;82;21080;-74
2021/07/05 20:33:40;;;;;;;6.53;4.03;;;;;;;24.00;66.41;98872.09;1742508;81;22256;-74
2021/07/05 20:36:14;;;;;;;5.45;3.65;;;;;;;23.98;66.43;98871.72;1743041;80;21075;-74
2021/07/05 20:38:43;;;;;;;6.72;3.87;;;;;;;23.96;66.48;98869.94;1741397;81;21140;-74
2021/07/05 20:41:14;;;;;;;8.50;4.30;;;;;;;23.95;66.45;98870.54;1743391;81;21028;-73
2021/07/05 20:43:42;;;;;;;9.15;4.90;;;;;;;23.96;66.46;98876.97;1737395;81;21006;-74
2021/07/05 20:46:15;;;;;;;8.48;4.70;;;;;;;23.93;66.59;98870.80;1737027;81;21141;-74
2021/07/05 20:48:37;;;;;;;9.78;4.28;;;;;;;23.90;66.51;98872.44;1737267;82;21415;-73
2021/07/05 20:51:07;;;;;;;9.70;4.28;;;;;;;23.89;66.71;98875.67;1737640;81;21101;-74
2021/07/05 20:53:36;;;;;;;9.70;4.25;;;;;;;23.87;67.03;98883.73;1737668;82;21054;-73
2021/07/05 20:56:05;;;;;;;11.28;3.85;;;;;;;23.82;67.41;98877.39;1737480;81;21294;-74
2021/07/05 20:58:41;;;;;;;6.78;3.45;;;;;;;23.78;67.50;98871.02;1737130;82;21034;-73
2021/07/05 21:01:09;;;;;;;4.45;3.52;;;;;;;23.74;67.41;98873.72;1738144;81;21034;-74
2021/07/05 21:03:45;;;;;;;10.60;4.53;;;;;;;23.71;67.57;98872.56;1740289;81;21087;-74
2021/07/05 21:06:19;;;;;;;5.70;3.95;;;;;;;23.66;67.70;98868.20;1747193;81;21038;-74
2021/07/05 21:08:54;;;;;;;14.90;5.28;;;;;;;23.63;67.83;98879.52;1752679;81;21037;-74
2021/07/05 21:11:25;;;;;;;5.70;4.12;;;;;;;23.58;68.27;98875.96;1741872;82;21395;-73
2021/07/05 21:13:52;;;;;;;7.58;4.03;;;;;;;23.55;68.42;98878.83;1743099;81;21082;-74
2021/07/05 21:16:22;;;;;;;11.75;4.12;;;;;;;23.53;68.65;98878.45;1723853;81;21023;-73
2021/07/05 21:18:50;;;;;;;7.80;3.55;;;;;;;23.49;68.99;98875.69;1722082;83;21023;-73
2021/07/05 21:21:19;;;;;;;9.60;3.85;;;;;;;23.46;69.30;98882.16;1721929;83;21522;-73
2021/07/05 21:23:46;;;;;;;12.13;4.40;;;;;;;23.34;69.53;98878.70;1722176;83;21506;-72
2021/07/05 21:26:17;;;;;;;8.18;3.98;;;;;;;23.29;70.12;98881.98;1722216;83;21055;-73
2021/07/05 21:28:55;;;;;;;6.42;4.00;;;;;;;23.21;70.15;98877.68;1718896;83;21015;-72
2021/07/05 21:31:27;;;;;;;8.75;3.65;;;;;;;23.08;70.70;98882.45;1722322;83;21566;-73
2021/07/05 21:38:25;;;;;;;21.93;3.70;;;;;;;22.95;71.64;98875.81;1729095;81;21548;-73
2021/07/05 21:40:56;;;;;;;10.38;4.00;;;;;;;22.90;71.54;98874.27;1715803;83;21043;-73
2021/07/05 21:43:23;;;;;;;8.80;4.10;;;;;;;22.90;71.63;98865.04;1722043;83;21557;-73
2021/07/05 21:45:50;;;;;;;13.20;4.70;;;;;;;22.87;71.33;98862.48;1722191;83;21055;-73
2021/07/05 21:48:18;;;;;;;8.98;3.45;;;;;;;22.85;71.60;98870.52;1722075;83;21589;-73